Time;durP1;ratioP1;P1;durP2;ratioP2;P2;SDS_P1;SDS_P2;PMS_P1;PMS_P2;Temp;Humidity;BMP_temperature;BMP_pressure;BME280_temperature;BME280_humidity;BME280_pressure;Samples;Min_cycle;Max_cycle;Signal;HPM_P1;HPM_P2
2023/11/13 00:01:49;;;;;;;11.53;8.83;;;;;;;-0.61;100.00;98899.47;5070308;28;20255;-79
2023/11/13 00:04:16;;;;;;;11.53;8.97;;;;;;;-0.61;100.00;98902.09;5072402;28;20230;-80
2023/11/13 00:06:44;;;;;;;8.30;7.30;;;;;;;-0.61;100.00;98902.09;5062156;28;20228;-80
2023/11/13 00:09:12;;;;;;;9.30;7.50;;;;;;;-0.62;100.00;98905.72;5077815;28;20284;-80
2023/11/13 00:11:40;;;;;;;8.30;6.87;;;;;;;-0.60;100.00;98916.88;5077820;28;20242;-81
2023/11/13 00:14:08;;;;;;;9.40;7.50;;;;;;;-0.60;100.00;98923.94;5071584;28;20185;-80
2023/11/13 00:16:37;;;;;;;8.43;6.77;;;;;;;-0.60;100.00;98935.28;5057435;28;20233;-79
2023/11/13 00:19:06;;;;;;;8.30;7.10;;;;;;;-0.58;100.00;98932.50;5072615;28;20197;-80
2023/11/13 00:21:34;;;;;;;7.23;6.47;;;;;;;-0.57;100.00;98934.16;5077917;28;20204;-79
2023/11/13 00:24:02;;;;;;;9.77;6.07;;;;;;;-0.55;100.00;98942.69;5085759;28;20257;-78
2023/11/13 00:26:31;;;;;;;7.70;6.03;;;;;;;-0.53;100.00;98951.25;5084384;28;21007;-78
2023/11/13 00:29:01;;;;;;;7.73;5.80;;;;;;;-0.50;100.00;98950.91;5075595;28;20196;-78
2023/11/13 00:31:29;;;;;;;8.83;6.20;;;;;;;-0.45;100.00;98951.25;5082529;28;20253;-81
2023/11/13 00:33:57;;;;;;;7.20;6.00;;;;;;;-0.41;100.00;98949.09;5073500;28;20247;-79
2023/11/13 00:36:25;;;;;;;7.23;5.90;;;;;;;-0.36;100.00;98949.41;5057950;28;20560;-80
2023/11/13 00:38:54;;;;;;;7.00;6.07;;;;;;;-0.29;100.00;98963.56;5081764;28;20284;-80
2023/11/13 00:41:22;;;;;;;6.47;5.67;;;;;;;-0.25;100.00;98970.16;5079079;28;20192;-79
2023/11/13 00:43:50;;;;;;;7.20;5.70;;;;;;;-0.20;100.00;98976.56;5083217;28;20249;-79
2023/11/13 00:46:18;;;;;;;6.97;5.63;;;;;;;-0.16;100.00;98977.88;5074820;28;20217;-80
2023/11/13 00:48:46;;;;;;;7.43;5.50;;;;;;;-0.11;100.00;98990.53;5086437;28;20184;-81
2023/11/13 00:51:18;;;;;;;6.43;5.70;;;;;;;-0.04;100.00;98994.13;5082617;28;20227;-80
2023/11/13 00:53:46;;;;;;;8.67;5.80;;;;;;;-0.02;100.00;98987.72;5072807;28;20208;-80
2023/11/13 00:56:14;;;;;;;7.27;5.67;;;;;;;0.02;100.00;99004.00;5076310;28;20671;-80
2023/11/13 00:58:43;;;;;;;7.77;6.00;;;;;;;0.08;100.00;99007.78;5082274;28;20196;-80
2023/11/13 01:01:14;;;;;;;6.00;5.33;;;;;;;0.12;100.00;99012.53;5083864;28;20220;-80
2023/11/13 01:03:44;;;;;;;6.90;5.43;;;;;;;0.16;100.00;99008.56;5089939;28;20192;-79
2023/11/13 01:06:17;;;;;;;8.10;5.90;;;;;;;0.21;100.00;99008.06;5072236;28;20231;-80
2023/11/13 01:08:46;;;;;;;6.73;6.03;;;;;;;0.27;100.00;99016.13;5083777;28;20205;-80
2023/11/13 01:11:14;;;;;;;8.70;6.10;;;;;;;0.33;100.00;99022.50;5077597;28;20683;-79
2023/11/13 01:13:42;;;;;;;7.47;5.57;;;;;;;0.37;100.00;99023.84;5084446;28;20192;-80
2023/11/13 01:16:11;;;;;;;6.60;5.40;;;;;;;0.41;100.00;99022.50;5073997;28;20193;-81
2023/11/13 01:18:41;;;;;;;6.77;6.07;;;;;;;0.43;100.00;99031.06;5087505;28;20200;-80
2023/11/13 01:21:10;;;;;;;7.20;5.60;;;;;;;0.47;100.00;99021.81;5083326;28;20192;-80
2023/11/13 01:23:40;;;;;;;6.87;5.57;;;;;;;0.50;100.00;99023.31;5083720;28;20671;-80
2023/11/13 01:26:07;;;;;;;6.43;5.63;;;;;;;0.52;100.00;99029.22;5074398;28;20188;-81
2023/11/13 01:28:36;;;;;;;6.83;5.77;;;;;;;0.56;100.00;99031.34;5084126;28;20193;-80
2023/11/13 01:31:04;;;;;;;6.40;5.70;;;;;;;0.60;100.00;99037.13;5079925;28;20696;-80
2023/11/13 01:33:32;;;;;;;7.53;6.10;;;;;;;0.65;100.00;99040.88;5068628;28;20234;-80
2023/11/13 01:36:02;;;;;;;6.17;5.27;;;;;;;0.68;100.00;99037.91;5071811;28;20283;-79
2023/11/13 01:38:33;;;;;;;6.53;5.63;;;;;;;0.74;100.00;99046.94;5074926;28;20752;-78
2023/11/13 01:41:02;;;;;;;9.17;6.00;;;;;;;0.76;100.00;99040.50;5071192;28;20744;-79
2023/11/13 01:43:30;;;;;;;7.17;5.77;;;;;;;0.79;100.00;99032.22;5081490;28;20723;-80
2023/11/13 01:45:59;;;;;;;7.33;6.00;;;;;;;0.83;100.00;99038.00;5082089;28;20551;-81
2023/11/13 01:48:33;;;;;;;8.10;6.00;;;;;;;0.87;100.00;99042.75;5074998;28;20247;-80
2023/11/13 01:51:03;;;;;;;7.50;6.43;;;;;;;0.91;100.00;99040.59;5063240;28;20208;-80
2023/11/13 01:53:31;;;;;;;8.00;6.13;;;;;;;0.94;100.00;99034.13;5082776;28;20204;-78
2023/11/13 01:55:59;;;;;;;8.07;6.33;;;;;;;0.99;100.00;99034.44;5078763;28;20205;-80
2023/11/13 01:58:28;;;;;;;6.70;5.77;;;;;;;1.03;100.00;99036.56;5077839;28;20604;-79
2023/11/13 02:00:59;;;;;;;7.20;5.93;;;;;;;1.05;100.00;99023.22;5061128;28;20228;-82
2023/11/13 02:03:28;;;;;;;7.33;6.30;;;;;;;1.07;100.00;99029.97;5079223;28;20210;-80
2023/11/13 02:05:58;;;;;;;6.33;5.67;;;;;;;1.10;100.00;99026.16;5081850;28;20283;-79
2023/11/13 02:08:27;;;;;;;6.90;5.93;;;;;;;1.10;100.00;99023.50;5080966;28;20224;-80
2023/11/13 02:10:57;;;;;;;6.23;5.63;;;;;;;1.12;100.00;99017.06;5073984;28;20193;-78
2023/11/13 02:13:25;;;;;;;7.17;6.13;;;;;;;1.15;100.00;99008.00;5083956;28;20665;-78
2023/11/13 02:15:54;;;;;;;8.13;6.07;;;;;;;1.17;100.00;99000.69;5071456;28;20206;-80
2023/11/13 02:18:27;;;;;;;6.77;5.73;;;;;;;1.19;100.00;99006.63;5083556;28;20230;-80
2023/11/13 02:20:56;;;;;;;7.50;6.17;;;;;;;1.21;100.00;99002.03;5076210;28;20291;-79
2023/11/13 02:23:25;;;;;;;7.00;6.10;;;;;;;1.25;100.00;99003.31;5063981;28;20280;-80
2023/11/13 02:25:55;;;;;;;8.40;6.30;;;;;;;1.23;100.00;99002.66;5089735;28;20579;-80
2023/11/13 02:28:24;;;;;;;7.17;5.90;;;;;;;1.24;100.00;99002.47;5090915;28;20312;-80
2023/11/13 02:30:52;;;;;;;7.00;6.20;;;;;;;1.26;100.00;98999.69;5044624;28;20247;-82
2023/11/13 02:33:20;;;;;;;7.83;6.40;;;;;;;1.22;100.00;99011.56;5082050;28;20188;-81
2023/11/13 02:35:48;;;;;;;6.93;5.77;;;;;;;1.21;100.00;99013.38;5082933;28;20291;-79
2023/11/13 02:38:17;;;;;;;6.37;5.77;;;;;;;1.24;100.00;99014.84;5091081;28;20204;-79
2023/11/13 02:40:44;;;;;;;8.73;6.23;;;;;;;1.26;100.00;99018.16;5094994;28;20192;-80
2023/11/13 02:43:12;;;;;;;6.53;5.90;;;;;;;1.31;100.00;99015.78;5081045;28;20237;-80
2023/11/13 02:45:41;;;;;;;7.73;6.40;;;;;;;1.32;100.00;99020.91;5061719;28;20604;-82
2023/11/13 02:48:12;;;;;;;7.90;6.43;;;;;;;1.34;100.00;99010.16;5061955;28;20220;-81
2023/11/13 02:50:40;;;;;;;9.23;7.17;;;;;;;1.35;100.00;99000.44;5076974;28;20204;-82
2023/11/13 02:53:08;;;;;;;9.43;7.07;;;;;;;1.36;100.00;98996.78;5062740;28;20236;-79
2023/11/13 02:55:43;;;;;;;8.40;6.77;;;;;;;1.38;100.00;98995.63;5075884;28;20201;-79
2023/11/13 02:58:13;;;;;;;8.13;7.27;;;;;;;1.39;100.00;98986.72;5082957;28;20195;-80
2023/11/13 03:00:42;;;;;;;8.40;7.10;;;;;;;1.41;100.00;98981.22;5082791;28;20210;-81
2023/11/13 03:03:10;;;;;;;8.67;7.30;;;;;;;1.43;100.00;98990.63;5082899;28;20197;-80
2023/11/13 03:05:39;;;;;;;7.90;6.70;;;;;;;1.46;100.00;98994.72;5078479;28;20205;-79
2023/11/13 03:08:08;;;;;;;8.70;7.40;;;;;;;1.50;100.00;99002.13;5085888;28;20216;-80
2023/11/13 03:10:39;;;;;;;7.97;6.97;;;;;;;1.53;100.00;99007.06;5086132;28;20213;-80
2023/11/13 03:13:07;;;;;;;7.60;6.80;;;;;;;1.56;100.00;99011.16;5088037;28;20192;-79
2023/11/13 03:15:38;;;;;;;8.27;6.87;;;;;;;1.60;100.00;99009.78;5078065;28;20282;-79
2023/11/13 03:18:14;;;;;;;9.93;6.83;;;;;;;1.62;100.00;99011.28;5085677;28;20687;-81
2023/11/13 03:20:45;;;;;;;7.77;6.80;;;;;;;1.66;100.00;99006.47;5083501;28;20202;-79
2023/11/13 03:23:14;;;;;;;7.93;7.13;;;;;;;1.68;100.00;99005.25;5080946;28;20351;-82
2023/11/13 03:25:41;;;;;;;9.33;7.63;;;;;;;1.70;100.00;99005.91;5082373;28;20267;-80
2023/11/13 03:28:11;;;;;;;8.80;7.67;;;;;;;1.72;100.00;99008.41;5068128;28;20220;-78
2023/11/13 03:30:41;;;;;;;9.60;7.80;;;;;;;1.74;100.00;99004.56;5082217;28;20661;-80
2023/11/13 03:33:10;;;;;;;8.63;7.73;;;;;;;1.75;100.00;99002.75;5088447;28;20199;-78
2023/11/13 03:35:41;;;;;;;9.07;7.80;;;;;;;1.79;100.00;99004.03;5074273;28;20192;-80
2023/11/13 03:38:20;;;;;;;11.07;7.43;;;;;;;1.82;100.00;99006.28;5081463;28;20196;-79
2023/11/13 03:40:49;;;;;;;9.80;7.37;;;;;;;1.82;100.00;99014.22;5058044;28;20204;-80
2023/11/13 03:43:19;;;;;;;11.13;8.00;;;;;;;1.82;100.00;99008.16;5063239;28;20250;-80
2023/11/13 03:45:47;;;;;;;11.40;7.73;;;;;;;1.83;100.00;99010.59;5081591;28;20200;-80
2023/11/13 03:48:26;;;;;;;9.43;7.83;;;;;;;1.84;100.00;99011.41;5084123;28;20691;-82
2023/11/13 03:50:54;;;;;;;9.23;7.63;;;;;;;1.82;100.00;99014.22;5063871;28;20185;-79
2023/11/13 03:53:23;;;;;;;8.73;7.70;;;;;;;1.81;100.00;99020.53;5076264;28;20292;-79
2023/11/13 03:55:51;;;;;;;9.27;7.73;;;;;;;1.78;100.00;99019.06;5080672;28;20270;-79
2023/11/13 03:58:19;;;;;;;8.03;7.20;;;;;;;1.80;100.00;99025.97;5079159;28;20200;-80
2023/11/13 04:00:51;;;;;;;9.27;8.30;;;;;;;1.81;100.00;99027.63;5069561;28;20201;-79
2023/11/13 04:03:19;;;;;;;9.13;7.93;;;;;;;1.73;100.00;99018.75;5075240;28;20188;-80
2023/11/13 04:05:52;;;;;;;9.97;8.43;;;;;;;1.72;100.00;99013.69;5083968;28;20189;-81
2023/11/13 04:08:20;;;;;;;9.57;8.30;;;;;;;1.71;100.00;98999.66;5064895;28;20213;-79
2023/11/13 04:10:53;;;;;;;9.13;8.10;;;;;;;1.73;100.00;99020.56;5070890;28;20225;-82
2023/11/13 04:13:24;;;;;;;10.73;8.37;;;;;;;1.72;100.00;99029.53;5073053;28;20197;-81
2023/11/13 04:15:52;;;;;;;11.17;8.67;;;;;;;1.70;100.00;99026.22;5056684;28;20185;-80
2023/11/13 04:18:21;;;;;;;11.63;9.37;;;;;;;1.70;100.00;99031.50;5063656;28;20207;-80
2023/11/13 04:20:52;;;;;;;10.70;9.60;;;;;;;1.71;100.00;99038.44;5058983;28;20203;-80
2023/11/13 04:23:20;;;;;;;10.00;8.80;;;;;;;1.71;100.00;99038.44;5088215;28;20183;-80
2023/11/13 04:25:49;;;;;;;10.33;9.10;;;;;;;1.71;100.00;99043.72;5059777;28;20197;-79
2023/11/13 04:28:20;;;;;;;9.70;8.07;;;;;;;1.71;100.00;99043.72;5077212;28;20220;-79
2023/11/13 04:30:52;;;;;;;10.20;8.97;;;;;;;1.71;100.00;99041.06;5074429;28;20220;-79
2023/11/13 04:33:22;;;;;;;9.67;8.60;;;;;;;1.71;100.00;99051.63;5084695;28;20192;-81
2023/11/13 04:35:50;;;;;;;12.20;9.10;;;;;;;1.68;100.00;99044.88;5066874;28;20236;-78
2023/11/13 04:38:20;;;;;;;10.30;8.83;;;;;;;1.68;100.00;99047.50;5085456;28;20260;-80
2023/11/13 04:40:48;;;;;;;9.43;8.40;;;;;;;1.66;100.00;99041.59;5078643;28;20664;-82
2023/11/13 04:43:18;;;;;;;9.40;8.37;;;;;;;1.65;100.00;99060.25;5089217;28;20240;-80
2023/11/13 04:45:48;;;;;;;9.47;8.47;;;;;;;1.60;100.00;99062.59;5081183;28;20281;-78
2023/11/13 04:48:17;;;;;;;10.27;8.50;;;;;;;1.53;100.00;99065.16;5070526;28;20220;-80
2023/11/13 04:50:47;;;;;;;11.73;8.83;;;;;;;1.46;100.00;99077.38;5073424;28;20272;-80
2023/11/13 04:53:19;;;;;;;9.80;8.80;;;;;;;1.42;100.00;99070.00;5072400;28;20216;-80
2023/11/13 04:55:50;;;;;;;9.30;8.23;;;;;;;1.35;100.00;99061.97;5088209;28;20241;-82
2023/11/13 04:58:19;;;;;;;9.50;8.47;;;;;;;1.30;100.00;99053.75;5075030;28;20196;-80
2023/11/13 05:00:50;;;;;;;9.57;8.57;;;;;;;1.19;100.00;99054.13;5086219;28;20196;-78
2023/11/13 05:03:21;;;;;;;9.73;8.63;;;;;;;1.15;100.00;99048.38;5067173;28;20192;-81
2023/11/13 05:05:49;;;;;;;9.80;8.73;;;;;;;1.08;100.00;99055.34;5053113;28;20201;-80
2023/11/13 05:08:17;;;;;;;12.73;8.87;;;;;;;1.03;100.00;99070.84;5081129;28;20225;-79
2023/11/13 05:10:45;;;;;;;9.67;8.40;;;;;;;1.03;100.00;99089.31;5080264;28;20223;-80
2023/11/13 05:13:16;;;;;;;9.57;8.57;;;;;;;1.01;100.00;99090.50;5082738;28;20671;-80
2023/11/13 05:15:44;;;;;;;11.07;9.33;;;;;;;0.99;100.00;99074.00;5077014;28;20300;-80
2023/11/13 05:18:14;;;;;;;10.47;8.97;;;;;;;0.97;100.00;99070.75;5079683;28;20703;-80
2023/11/13 05:20:45;;;;;;;9.87;8.83;;;;;;;0.93;100.00;99074.72;5059324;28;20204;-82
2023/11/13 05:23:14;;;;;;;9.07;8.17;;;;;;;0.92;100.00;99083.63;5087746;28;20192;-82
2023/11/13 05:25:43;;;;;;;13.33;9.00;;;;;;;0.89;100.00;99088.22;5072616;28;20189;-80
2023/11/13 05:28:15;;;;;;;11.40;9.03;;;;;;;0.88;100.00;99089.25;5083783;28;20228;-79
2023/11/13 05:30:43;;;;;;;12.47;9.47;;;;;;;0.87;100.00;99079.69;5084563;28;20193;-81
2023/11/13 05:33:11;;;;;;;9.80;8.80;;;;;;;0.89;100.00;99082.97;5056829;28;20245;-80
2023/11/13 05:35:39;;;;;;;11.70;9.33;;;;;;;0.89;100.00;99080.31;5080747;28;20189;-80
2023/11/13 05:38:07;;;;;;;11.03;9.60;;;;;;;0.93;100.00;99087.91;5072718;28;20185;-80
2023/11/13 05:40:36;;;;;;;11.60;9.07;;;;;;;0.96;100.00;99091.03;5076963;28;20206;-79
2023/11/13 05:43:06;;;;;;;10.93;9.13;;;;;;;0.98;100.00;99081.09;5086927;28;20231;-79
2023/11/13 05:45:37;;;;;;;10.17;9.07;;;;;;;1.03;100.00;99076.13;5077618;28;20197;-78
2023/11/13 05:48:05;;;;;;;10.73;8.97;;;;;;;1.06;100.00;99081.09;5074838;28;20222;-81
2023/11/13 05:50:33;;;;;;;11.53;9.40;;;;;;;1.09;100.00;99093.94;5063994;28;20200;-78
2023/11/13 05:53:05;;;;;;;11.73;9.73;;;;;;;1.16;100.00;99112.53;5084042;28;20208;-80
2023/11/13 05:55:36;;;;;;;11.90;10.63;;;;;;;1.23;100.00;99109.03;5075505;28;20262;-78
2023/11/13 05:58:04;;;;;;;11.87;10.10;;;;;;;1.27;100.00;99097.13;5077314;28;20569;-82
2023/11/13 06:00:34;;;;;;;13.57;9.87;;;;;;;1.36;100.00;99105.00;5078480;28;20661;-81
2023/11/13 06:03:02;;;;;;;12.90;10.50;;;;;;;1.44;100.00;99107.59;5091913;28;20206;-80
2023/11/13 06:05:30;;;;;;;12.07;10.60;;;;;;;1.50;100.00;99101.59;5076899;28;20196;-81
2023/11/13 06:07:59;;;;;;;11.93;10.73;;;;;;;1.57;100.00;99102.56;5059174;28;20225;-80
2023/11/13 06:10:27;;;;;;;13.43;11.10;;;;;;;1.55;100.00;99113.28;5083497;28;20234;-81
2023/11/13 06:12:55;;;;;;;12.83;10.87;;;;;;;1.61;100.00;99120.53;5075271;28;20196;-81
2023/11/13 06:15:22;;;;;;;12.53;10.80;;;;;;;1.67;100.00;99117.19;5059693;28;20730;-80
2023/11/13 06:17:49;;;;;;;15.67;11.80;;;;;;;1.76;100.00;99134.63;5076571;28;20193;-81
2023/11/13 06:20:19;;;;;;;13.90;11.47;;;;;;;1.85;100.00;99129.28;5081366;28;20228;-81
2023/11/13 06:22:48;;;;;;;12.87;11.47;;;;;;;1.93;100.00;99116.00;5078926;28;20209;-80
2023/11/13 06:25:16;;;;;;;13.33;11.93;;;;;;;2.02;100.00;99121.06;5061102;28;20673;-79
2023/11/13 06:27:47;;;;;;;15.03;12.50;;;;;;;2.09;100.00;99118.53;5076380;28;20243;-78
2023/11/13 06:30:17;;;;;;;16.17;13.53;;;;;;;2.19;100.00;99121.75;5076444;28;20288;-80
2023/11/13 06:32:47;;;;;;;16.07;13.70;;;;;;;2.29;100.00;99124.94;5087165;28;20191;-80
2023/11/13 06:35:19;;;;;;;16.30;13.50;;;;;;;2.39;100.00;99124.69;5081993;28;20269;-80
2023/11/13 06:37:47;;;;;;;16.43;13.57;;;;;;;2.44;100.00;99119.69;5081745;28;20253;-80
2023/11/13 06:40:16;;;;;;;14.40;12.73;;;;;;;2.51;100.00;99120.63;5074948;28;20200;-80
2023/11/13 06:42:48;;;;;;;15.97;12.80;;;;;;;2.69;100.00;99120.28;5078987;28;21080;-80
2023/11/13 06:45:17;;;;;;;15.73;13.30;;;;;;;2.88;100.00;99127.69;5075230;28;20196;-81
2023/11/13 06:47:50;;;;;;;15.80;13.83;;;;;;;3.02;100.00;99130.34;5077559;28;20195;-80
2023/11/13 06:50:20;;;;;;;18.17;13.77;;;;;;;3.20;100.00;99134.41;5084574;28;20211;-81
2023/11/13 06:52:48;;;;;;;17.20;14.13;;;;;;;3.44;100.00;99124.34;5078728;28;20221;-80
2023/11/13 06:55:16;;;;;;;17.73;13.33;;;;;;;3.64;100.00;99119.25;5077347;28;20231;-80
2023/11/13 06:57:50;;;;;;;16.03;13.60;;;;;;;3.79;100.00;99130.63;5081802;28;20201;-80
2023/11/13 07:00:19;;;;;;;18.20;13.43;;;;;;;3.92;100.00;99140.53;5091151;28;20278;-80
2023/11/13 07:02:50;;;;;;;15.43;12.83;;;;;;;3.99;100.00;99133.47;5083581;28;20204;-80
2023/11/13 07:05:24;;;;;;;17.17;13.73;;;;;;;3.97;100.00;99135.47;5076009;28;20211;-78
2023/11/13 07:07:51;;;;;;;14.73;13.20;;;;;;;3.95;100.00;99135.69;5072912;28;20240;-78
2023/11/13 07:10:21;;;;;;;14.83;12.90;;;;;;;4.01;100.00;99128.81;5062523;28;20295;-80
2023/11/13 07:12:49;;;;;;;16.13;14.03;;;;;;;4.09;100.00;99141.94;5077458;28;20185;-80
2023/11/13 07:15:19;;;;;;;14.27;12.87;;;;;;;4.17;100.00;99141.78;5068672;28;20876;-84
2023/11/13 07:17:48;;;;;;;14.27;12.17;;;;;;;4.27;100.00;99138.81;5077478;28;20188;-79
2023/11/13 07:20:20;;;;;;;13.77;11.83;;;;;;;4.34;100.00;99140.50;5083024;28;20208;-79
2023/11/13 07:22:52;;;;;;;13.23;11.43;;;;;;;4.48;100.00;99135.34;5086229;28;20215;-79
2023/11/13 07:25:23;;;;;;;12.13;10.73;;;;;;;4.57;100.00;99131.53;5084279;28;20683;-79
2023/11/13 07:27:51;;;;;;;13.07;11.43;;;;;;;4.74;100.00;99130.22;5056292;28;20197;-79
2023/11/13 07:30:20;;;;;;;13.60;12.10;;;;;;;4.82;100.00;99130.88;5073115;28;20189;-79
2023/11/13 07:32:52;;;;;;;12.47;11.17;;;;;;;4.90;100.00;99123.78;5082154;28;20722;-79
2023/11/13 07:35:20;;;;;;;11.57;10.37;;;;;;;5.01;100.00;99124.03;5084979;28;20193;-79
2023/11/13 07:37:53;;;;;;;11.00;9.90;;;;;;;5.23;100.00;99122.91;5077162;28;20224;-79
2023/11/13 07:40:20;;;;;;;9.90;9.00;;;;;;;5.53;100.00;99123.47;5070444;28;20219;-79
2023/11/13 07:43:00;;;;;;;10.20;9.20;;;;;;;5.59;100.00;99125.31;5067934;28;20234;-79
2023/11/13 07:45:33;;;;;;;10.40;9.30;;;;;;;5.74;100.00;99130.44;5062862;28;20200;-79
2023/11/13 07:48:03;;;;;;;11.03;9.50;;;;;;;6.03;100.00;99127.47;5069357;28;20205;-79
2023/11/13 07:50:37;;;;;;;11.70;9.97;;;;;;;6.26;100.00;99127.09;5070604;28;20676;-79
2023/11/13 07:53:25;;;;;;;11.47;10.37;;;;;;;6.29;100.00;99132.03;5063130;28;20245;-79
2023/11/13 07:55:56;;;;;;;11.23;10.13;;;;;;;6.34;100.00;99128.75;5052495;28;20215;-80
2023/11/13 07:58:49;;;;;;;10.20;9.20;;;;;;;6.36;100.00;99138.16;5084555;28;20200;-78
2023/11/13 08:01:20;;;;;;;13.60;9.63;;;;;;;6.42;100.00;99125.88;5059028;28;20204;-78
2023/11/13 08:03:47;;;;;;;13.43;9.00;;;;;;;6.47;100.00;99137.56;5078973;28;20659;-81
2023/11/13 08:06:15;;;;;;;12.77;9.87;;;;;;;6.53;100.00;99134.06;5081318;28;20205;-80
2023/11/13 08:08:49;;;;;;;10.90;8.90;;;;;;;6.72;100.00;99137.72;5061687;28;20266;-81
2023/11/13 08:11:17;;;;;;;13.93;9.33;;;;;;;6.89;100.00;99149.59;5073957;28;20203;-79
2023/11/13 08:13:45;;;;;;;10.63;9.03;;;;;;;7.04;100.00;99142.19;5055505;28;20193;-78
2023/11/13 08:16:12;;;;;;;9.00;8.07;;;;;;;7.14;100.00;99136.41;5067486;28;20196;-78
2023/11/13 08:18:44;;;;;;;9.10;7.60;;;;;;;7.39;100.00;99134.69;5076322;28;20205;-78
2023/11/13 08:21:17;;;;;;;8.33;7.47;;;;;;;7.68;100.00;99125.34;5063890;28;20205;-79
2023/11/13 08:23:49;;;;;;;8.30;7.50;;;;;;;7.86;100.00;99121.97;5071900;28;20201;-78
2023/11/13 08:26:20;;;;;;;7.60;6.90;;;;;;;7.94;100.00;99113.69;5079782;28;20203;-79
2023/11/13 08:28:54;;;;;;;6.97;6.27;;;;;;;8.06;100.00;99114.66;5056165;28;20226;-79
2023/11/13 08:31:21;;;;;;;7.13;6.13;;;;;;;8.13;100.00;99106.59;5061185;28;20205;-81
2023/11/13 08:33:59;;;;;;;6.97;5.73;;;;;;;8.19;100.00;99109.22;5073224;28;20196;-78
2023/11/13 08:36:28;;;;;;;5.90;4.67;;;;;;;8.25;100.00;99121.72;5062003;28;20204;-79
2023/11/13 08:38:56;;;;;;;5.63;4.70;;;;;;;8.19;100.00;99116.41;5076332;28;20205;-79
2023/11/13 08:41:23;;;;;;;5.10;4.60;;;;;;;8.18;100.00;99120.94;5072364;28;20347;-79
2023/11/13 08:43:52;;;;;;;6.37;4.60;;;;;;;8.20;100.00;99123.38;5057930;28;20220;-80
2023/11/13 08:46:21;;;;;;;5.13;4.63;;;;;;;8.22;100.00;99127.47;5074622;28;20265;-79
2023/11/13 08:48:54;;;;;;;5.00;4.50;;;;;;;8.23;100.00;99120.28;5061448;28;20228;-78
2023/11/13 08:51:28;;;;;;;5.30;4.33;;;;;;;8.32;100.00;99121.69;5074490;28;20204;-80
2023/11/13 08:54:00;;;;;;;5.17;4.67;;;;;;;8.46;100.00;99127.72;5070133;28;20193;-79
2023/11/13 08:56:28;;;;;;;5.13;4.00;;;;;;;8.58;100.00;99123.31;5073349;28;20204;-79
2023/11/13 08:58:58;;;;;;;4.47;4.03;;;;;;;8.63;100.00;99129.63;5090080;28;20279;-78
2023/11/13 09:01:32;;;;;;;4.80;3.70;;;;;;;8.61;100.00;99134.38;5067948;28;20198;-78
2023/11/13 09:04:01;;;;;;;5.23;3.50;;;;;;;8.55;100.00;99132.56;5083676;28;20200;-78
2023/11/13 09:06:34;;;;;;;3.97;3.10;;;;;;;8.51;100.00;99127.88;5061282;28;20303;-78
2023/11/13 09:09:12;;;;;;;3.77;3.30;;;;;;;8.48;100.00;99133.69;5071890;28;20275;-78
2023/11/13 09:11:41;;;;;;;3.40;3.10;;;;;;;8.37;100.00;99130.66;5065238;28;20216;-80
2023/11/13 09:14:11;;;;;;;4.53;3.00;;;;;;;8.36;100.00;99133.53;5078147;28;20217;-78
2023/11/13 09:16:41;;;;;;;3.10;2.80;;;;;;;8.29;100.00;99124.75;5062947;28;20220;-78
2023/11/13 09:19:09;;;;;;;3.73;2.70;;;;;;;8.33;100.00;99129.47;5070605;28;20200;-79
2023/11/13 09:21:38;;;;;;;2.67;2.47;;;;;;;8.33;100.00;99129.47;5059742;28;20703;-79
2023/11/13 09:24:09;;;;;;;2.90;2.60;;;;;;;8.39;100.00;99125.94;5067603;28;20201;-79
2023/11/13 09:26:42;;;;;;;2.50;2.30;;;;;;;8.43;100.00;99130.84;5080019;28;20208;-80
2023/11/13 09:29:09;;;;;;;7.17;3.67;;;;;;;8.42;100.00;99122.00;5053292;28;20223;-80
2023/11/13 09:31:39;;;;;;;4.37;3.00;;;;;;;8.42;100.00;99123.84;5076421;28;20785;-79
2023/11/13 09:34:07;;;;;;;2.73;2.43;;;;;;;8.45;100.00;99128.75;5071594;28;20259;-78
2023/11/13 09:36:36;;;;;;;2.60;2.40;;;;;;;8.38;100.00;99121.63;5070522;28;20192;-79
2023/11/13 09:39:08;;;;;;;3.83;2.33;;;;;;;8.31;100.00;99117.38;5057699;28;20204;-78
2023/11/13 09:41:45;;;;;;;2.87;2.30;;;;;;;8.28;100.00;99120.44;5096564;28;20275;-78
2023/11/13 09:44:13;;;;;;;3.53;2.47;;;;;;;8.22;100.00;99121.31;5067214;28;20185;-79
2023/11/13 09:46:41;;;;;;;3.27;2.90;;;;;;;8.30;100.00;99119.25;5077665;28;20222;-80
2023/11/13 09:49:10;;;;;;;3.33;3.03;;;;;;;8.45;100.00;99126.09;5083850;28;20303;-78
2023/11/13 09:51:41;;;;;;;3.33;3.00;;;;;;;8.56;100.00;99115.53;5060414;28;20222;-78
2023/11/13 09:54:10;;;;;;;3.87;3.30;;;;;;;8.68;100.00;99113.75;5081539;28;20250;-78
2023/11/13 09:56:43;;;;;;;3.30;3.00;;;;;;;8.79;100.00;99115.72;5058083;28;20660;-81
2023/11/13 09:59:11;;;;;;;3.20;2.90;;;;;;;8.91;100.00;99104.31;5078495;28;20196;-84
2023/11/13 10:01:39;;;;;;;2.93;2.73;;;;;;;9.12;100.00;99110.03;5070389;28;20221;-80
2023/11/13 10:04:06;;;;;;;2.67;2.47;;;;;;;9.17;100.00;99117.38;5046583;28;20704;-80
2023/11/13 10:06:36;;;;;;;2.83;2.63;;;;;;;9.07;100.00;99107.22;5085676;28;20201;-78
2023/11/13 10:09:04;;;;;;;2.77;2.33;;;;;;;9.03;100.00;99099.84;5061530;28;20719;-79
2023/11/13 10:11:33;;;;;;;2.67;2.47;;;;;;;9.02;100.00;99096.38;5090203;28;20192;-80
2023/11/13 10:14:18;;;;;;;2.43;2.23;;;;;;;8.94;100.00;99094.00;5065007;28;20227;-80
2023/11/13 10:16:56;;;;;;;2.73;2.27;;;;;;;8.98;100.00;99095.19;5076983;28;20196;-78
2023/11/13 10:19:23;;;;;;;2.93;2.50;;;;;;;8.92;100.00;99096.06;5070187;28;20197;-79
2023/11/13 10:21:57;;;;;;;2.77;2.20;;;;;;;8.98;100.00;99095.19;5076989;28;20652;-79
2023/11/13 10:24:25;;;;;;;2.40;2.20;;;;;;;9.00;100.00;99092.31;5073785;28;20197;-79
2023/11/13 10:27:12;;;;;;;2.70;2.50;;;;;;;9.05;100.00;99090.56;5059853;28;20197;-79
2023/11/13 10:29:39;;;;;;;2.73;2.50;;;;;;;9.13;100.00;99076.09;5081147;28;20281;-79
2023/11/13 10:32:06;;;;;;;3.13;2.53;;;;;;;9.17;100.00;99071.94;5074655;28;20197;-78
2023/11/13 10:34:46;;;;;;;2.50;2.10;;;;;;;9.16;100.00;99076.47;5073545;28;20267;-81
2023/11/13 10:37:15;;;;;;;5.30;2.20;;;;;;;9.18;100.00;99085.09;5081878;28;20279;-79
2023/11/13 10:39:43;;;;;;;2.53;2.33;;;;;;;9.11;100.00;99087.00;5081719;28;20200;-80
2023/11/13 10:42:28;;;;;;;2.20;2.00;;;;;;;8.97;100.00;99077.50;5085968;28;20244;-83
2023/11/13 10:44:56;;;;;;;2.20;2.00;;;;;;;8.92;100.00;99082.69;5105001;28;20223;-80
2023/11/13 10:47:26;;;;;;;2.47;2.20;;;;;;;8.91;100.00;99077.59;5097372;28;20245;-78
2023/11/13 10:49:55;;;;;;;3.40;2.27;;;;;;;8.95;100.00;99070.78;5072639;28;20277;-79
2023/11/13 10:52:28;;;;;;;2.33;2.10;;;;;;;8.92;100.00;99065.84;5090671;28;20213;-81
2023/11/13 10:55:01;;;;;;;2.97;2.40;;;;;;;8.98;100.00;99067.66;5083750;28;20184;-78
2023/11/13 10:57:29;;;;;;;2.40;1.93;;;;;;;8.88;100.00;99054.81;5076455;28;20247;-79
2023/11/13 10:59:59;;;;;;;3.30;2.00;;;;;;;9.03;100.00;99054.44;5078735;28;20200;-79
2023/11/13 11:02:38;;;;;;;3.93;3.53;;;;;;;9.12;100.00;99053.09;5080594;28;20189;-79
2023/11/13 11:05:11;;;;;;;3.20;2.90;;;;;;;9.11;100.00;99054.13;5086523;28;20279;-79
2023/11/13 11:07:39;;;;;;;2.70;2.50;;;;;;;9.01;100.00;99043.13;5064248;28;20189;-75
2023/11/13 11:10:08;;;;;;;2.73;2.53;;;;;;;8.83;100.00;99052.78;5075819;28;20288;-79
2023/11/13 11:12:47;;;;;;;3.83;3.27;;;;;;;8.82;100.00;99051.16;5081095;28;20189;-79
2023/11/13 11:15:41;;;;;;;4.00;3.60;;;;;;;8.66;100.00;99046.41;5077617;28;20188;-79
2023/11/13 11:18:18;;;;;;;3.50;2.80;;;;;;;8.55;100.00;99039.13;5080675;28;20220;-79
2023/11/13 11:21:15;;;;;;;4.10;2.70;;;;;;;8.65;100.00;99039.44;5080174;28;20664;-78
2023/11/13 11:23:51;;;;;;;2.63;2.43;;;;;;;8.71;100.00;99035.88;5079737;28;20216;-79
2023/11/13 11:26:21;;;;;;;3.00;2.70;;;;;;;9.09;100.00;99034.84;5065046;28;20204;-77
2023/11/13 11:28:52;;;;;;;3.93;2.87;;;;;;;9.44;100.00;99019.78;5063349;28;20215;-78
2023/11/13 11:31:30;;;;;;;2.90;2.60;;;;;;;9.59;100.00;99033.56;5077304;28;20189;-78
2023/11/13 11:34:00;;;;;;;5.63;5.17;;;;;;;9.44;100.00;99019.78;5078548;28;20286;-79
2023/11/13 11:36:36;;;;;;;5.07;4.13;;;;;;;9.48;100.00;99030.81;5088064;28;20193;-80
2023/11/13 11:39:21;;;;;;;5.47;4.97;;;;;;;9.42;100.00;99015.72;5075945;28;20216;-80
2023/11/13 11:41:52;;;;;;;4.43;4.00;;;;;;;9.48;100.00;99033.50;5076185;28;20668;-79
2023/11/13 11:44:29;;;;;;;4.03;3.63;;;;;;;9.56;100.00;99023.31;5085116;28;20228;-77